sensor_id;sensor_type;location;lat;lon;timestamp;pressure;altitude;pressure_sealevel;temperature;humidity
41513;BME280;27244;59.940;30.280;2023-04-01T00:01:45;100317.34;;;22.93;25.40
41513;BME280;27244;59.940;30.280;2023-04-01T00:04:13;100323.75;;;22.94;25.38
41513;BME280;27244;59.940;30.280;2023-04-01T00:06:41;100318.59;;;22.92;25.34
41513;BME280;27244;59.940;30.280;2023-04-01T00:09:08;100321.41;;;22.92;25.36
41513;BME280;27244;59.940;30.280;2023-04-01T00:11:34;100319.81;;;22.91;25.32
41513;BME280;27244;59.940;30.280;2023-04-01T00:14:01;100309.59;;;22.85;25.33
41513;BME280;27244;59.940;30.280;2023-04-01T00:16:30;100317.44;;;22.90;25.35
41513;BME280;27244;59.940;30.280;2023-04-01T00:18:57;100314.63;;;22.90;25.45
41513;BME280;27244;59.940;30.280;2023-04-01T00:21:25;100304.41;;;22.83;25.42
41513;BME280;27244;59.940;30.280;2023-04-01T00:23:52;100322.31;;;22.89;25.41
41513;BME280;27244;59.940;30.280;2023-04-01T00:26:20;100311.94;;;22.86;25.58
41513;BME280;27244;59.940;30.280;2023-04-01T00:28:47;100314.00;;;22.86;25.38
41513;BME280;27244;59.940;30.280;2023-04-01T00:31:14;100316.00;;;22.85;25.54
41513;BME280;27244;59.940;30.280;2023-04-01T00:33:43;100321.16;;;22.87;25.44
41513;BME280;27244;59.940;30.280;2023-04-01T00:36:10;100317.66;;;22.83;25.63
41513;BME280;27244;59.940;30.280;2023-04-01T00:38:38;100311.19;;;22.86;25.44
41513;BME280;27244;59.940;30.280;2023-04-01T00:41:06;100316.00;;;22.85;25.35
41513;BME280;27244;59.940;30.280;2023-04-01T00:43:33;100311.28;;;22.82;25.27
41513;BME280;27244;59.940;30.280;2023-04-01T00:46:00;100312.03;;;22.83;25.53
41513;BME280;27244;59.940;30.280;2023-04-01T00:48:30;100317.22;;;22.84;25.26
41513;BME280;27244;59.940;30.280;2023-04-01T00:51:01;100311.94;;;22.86;25.15
41513;BME280;27244;59.940;30.280;2023-04-01T00:53:30;100307.31;;;22.80;25.42
41513;BME280;27244;59.940;30.280;2023-04-01T00:56:01;100314.44;;;22.84;25.39
41513;BME280;27244;59.940;30.280;2023-04-01T00:58:31;100310.50;;;22.82;25.17
41513;BME280;27244;59.940;30.280;2023-04-01T01:01:00;100316.56;;;22.80;25.35
41513;BME280;27244;59.940;30.280;2023-04-01T01:03:28;100302.28;;;22.75;25.45
41513;BME280;27244;59.940;30.280;2023-04-01T01:06:08;100303.50;;;22.86;25.60
41513;BME280;27244;59.940;30.280;2023-04-01T01:08:58;100303.59;;;22.83;25.36
41513;BME280;27244;59.940;30.280;2023-04-01T01:11:37;100301.69;;;22.80;25.10
41513;BME280;27244;59.940;30.280;2023-04-01T01:14:13;100305.31;;;22.80;25.22
41513;BME280;27244;59.940;30.280;2023-04-01T01:16:45;100297.78;;;22.77;25.26
41513;BME280;27244;59.940;30.280;2023-04-01T01:19:32;100312.50;;;22.81;25.20
41513;BME280;27244;59.940;30.280;2023-04-01T01:22:21;100307.22;;;22.83;25.33
41513;BME280;27244;59.940;30.280;2023-04-01T01:25:10;100308.00;;;22.84;25.33
41513;BME280;27244;59.940;30.280;2023-04-01T01:27:47;100309.81;;;22.78;25.29
41513;BME280;27244;59.940;30.280;2023-04-01T01:30:27;100305.78;;;22.79;25.28
41513;BME280;27244;59.940;30.280;2023-04-01T01:33:09;100302.16;;;22.78;25.17
41513;BME280;27244;59.940;30.280;2023-04-01T01:35:43;100313.06;;;22.76;25.26
41513;BME280;27244;59.940;30.280;2023-04-01T01:38:18;100307.22;;;22.71;24.98
41513;BME280;27244;59.940;30.280;2023-04-01T01:40:55;100308.34;;;22.73;25.06
41513;BME280;27244;59.940;30.280;2023-04-01T01:43:27;100301.91;;;22.73;25.00
41513;BME280;27244;59.940;30.280;2023-04-01T01:45:58;100308.00;;;22.71;25.12
41513;BME280;27244;59.940;30.280;2023-04-01T01:48:28;100314.44;;;22.72;24.89
41513;BME280;27244;59.940;30.280;2023-04-01T01:50:58;100308.44;;;22.70;24.96
41513;BME280;27244;59.940;30.280;2023-04-01T01:53:25;100308.88;;;22.68;24.92
41513;BME280;27244;59.940;30.280;2023-04-01T01:55:52;100308.44;;;22.70;25.05
41513;BME280;27244;59.940;30.280;2023-04-01T01:58:22;100308.44;;;22.70;24.83
41513;BME280;27244;59.940;30.280;2023-04-01T02:00:53;100305.72;;;22.66;24.94
41513;BME280;27244;59.940;30.280;2023-04-01T02:03:23;100304.03;;;22.69;24.83
41513;BME280;27244;59.940;30.280;2023-04-01T02:05:55;100305.72;;;22.66;24.81
41513;BME280;27244;59.940;30.280;2023-04-01T02:08:27;100288.16;;;22.62;24.84
41513;BME280;27244;59.940;30.280;2023-04-01T02:10:59;100304.50;;;22.67;24.83
41513;BME280;27244;59.940;30.280;2023-04-01T02:13:35;100300.88;;;22.67;24.90
41513;BME280;27244;59.940;30.280;2023-04-01T02:16:11;100303.25;;;22.68;24.86
41513;BME280;27244;59.940;30.280;2023-04-01T02:18:39;100301.00;;;22.63;24.65
41513;BME280;27244;59.940;30.280;2023-04-01T02:21:08;100297.38;;;22.63;24.69
41513;BME280;27244;59.940;30.280;2023-04-01T02:23:37;100303.34;;;22.65;24.95
41513;BME280;27244;59.940;30.280;2023-04-01T02:26:06;100298.59;;;22.62;24.89
41513;BME280;27244;59.940;30.280;2023-04-01T02:28:36;100303.78;;;22.63;24.65
41513;BME280;27244;59.940;30.280;2023-04-01T02:31:05;100300.63;;;22.61;24.85
41513;BME280;27244;59.940;30.280;2023-04-01T02:33:33;100299.41;;;22.62;24.81
41513;BME280;27244;59.940;30.280;2023-04-01T02:36:00;100296.59;;;22.62;24.79
41513;BME280;27244;59.940;30.280;2023-04-01T02:38:27;100293.56;;;22.56;24.92
41513;BME280;27244;59.940;30.280;2023-04-01T02:40:59;100301.00;;;22.63;24.81
41513;BME280;27244;59.940;30.280;2023-04-01T02:43:27;100289.16;;;22.55;24.86
41513;BME280;27244;59.940;30.280;2023-04-01T02:45:55;100303.44;;;22.61;24.91
41513;BME280;27244;59.940;30.280;2023-04-01T02:48:22;100296.25;;;22.60;24.84
41513;BME280;27244;59.940;30.280;2023-04-01T02:50:50;100303.78;;;22.63;24.70
41513;BME280;27244;59.940;30.280;2023-04-01T02:53:17;100306.72;;;22.60;24.82
41513;BME280;27244;59.940;30.280;2023-04-01T02:55:44;100302.44;;;22.55;24.79
41513;BME280;27244;59.940;30.280;2023-04-01T02:58:12;100308.41;;;22.57;24.85
41513;BME280;27244;59.940;30.280;2023-04-01T03:00:39;100298.81;;;22.54;24.90
41513;BME280;27244;59.940;30.280;2023-04-01T03:03:06;100310.53;;;22.53;24.77
41513;BME280;27244;59.940;30.280;2023-04-01T03:05:33;100308.06;;;22.55;24.67
41513;BME280;27244;59.940;30.280;2023-04-01T03:08:00;100308.06;;;22.55;24.67
41513;BME280;27244;59.940;30.280;2023-04-01T03:10:28;100316.94;;;22.53;24.86
41513;BME280;27244;59.940;30.280;2023-04-01T03:12:55;100310.19;;;22.51;24.76
41513;BME280;27244;59.940;30.280;2023-04-01T03:15:23;100316.94;;;22.53;24.80
41513;BME280;27244;59.940;30.280;2023-04-01T03:17:50;100311.75;;;22.52;24.59
41513;BME280;27244;59.940;30.280;2023-04-01T03:20:17;100317.38;;;22.52;24.80
41513;BME280;27244;59.940;30.280;2023-04-01T03:22:45;100320.19;;;22.52;24.59
41513;BME280;27244;59.940;30.280;2023-04-01T03:25:12;100318.59;;;22.51;24.74
41513;BME280;27244;59.940;30.280;2023-04-01T03:27:39;100309.16;;;22.45;24.81
41513;BME280;27244;59.940;30.280;2023-04-01T03:30:08;100312.97;;;22.51;24.79
41513;BME280;27244;59.940;30.280;2023-04-01T03:32:44;100320.97;;;22.52;24.75
41513;BME280;27244;59.940;30.280;2023-04-01T03:35:11;100321.41;;;22.51;24.65
41513;BME280;27244;59.940;30.280;2023-04-01T03:37:39;100321.88;;;22.49;24.72
41513;BME280;27244;59.940;30.280;2023-04-01T03:40:07;100321.41;;;22.51;24.80
41513;BME280;27244;59.940;30.280;2023-04-01T03:42:34;100334.25;;;22.52;24.76
41513;BME280;27244;59.940;30.280;2023-04-01T03:45:01;100327.03;;;22.51;24.62
41513;BME280;27244;59.940;30.280;2023-04-01T03:47:32;100332.66;;;22.51;24.61
41513;BME280;27244;59.940;30.280;2023-04-01T03:50:00;100337.50;;;22.50;24.79
41513;BME280;27244;59.940;30.280;2023-04-01T03:52:27;100325.13;;;22.48;24.80
41513;BME280;27244;59.940;30.280;2023-04-01T03:54:54;100330.75;;;22.48;24.62
41513;BME280;27244;59.940;30.280;2023-04-01T03:57:25;100344.38;;;22.49;24.65
41513;BME280;27244;59.940;30.280;2023-04-01T03:59:54;100340.75;;;22.49;24.60
41513;BME280;27244;59.940;30.280;2023-04-01T04:02:21;100334.78;;;22.47;24.64
41513;BME280;27244;59.940;30.280;2023-04-01T04:04:48;100334.78;;;22.47;24.66
41513;BME280;27244;59.940;30.280;2023-04-01T04:07:17;100324.09;;;22.42;24.78
41513;BME280;27244;59.940;30.280;2023-04-01T04:09:58;100331.97;;;22.47;24.75
41513;BME280;27244;59.940;30.280;2023-04-01T04:12:25;100334.00;;;22.46;24.76
41513;BME280;27244;59.940;30.280;2023-04-01T04:14:53;100333.66;;;22.44;24.78
41513;BME280;27244;59.940;30.280;2023-04-01T04:17:20;100334.44;;;22.45;24.58
41513;BME280;27244;59.940;30.280;2023-04-01T04:19:47;100337.69;;;22.43;25.09
41513;BME280;27244;59.940;30.280;2023-04-01T04:22:19;100340.41;;;22.47;24.81
41513;BME280;27244;59.940;30.280;2023-04-01T04:24:46;100336.13;;;22.42;24.81
41513;BME280;27244;59.940;30.280;2023-04-01T04:27:13;100340.97;;;22.42;24.69
41513;BME280;27244;59.940;30.280;2023-04-01T04:30:03;100338.16;;;22.42;24.61
41513;BME280;27244;59.940;30.280;2023-04-01T04:32:31;100348.50;;;22.45;24.84
41513;BME280;27244;59.940;30.280;2023-04-01T04:34:58;100344.09;;;22.44;24.86
41513;BME280;27244;59.940;30.280;2023-04-01T04:37:27;100343.31;;;22.43;24.78
41513;BME280;27244;59.940;30.280;2023-04-01T04:39:54;100345.78;;;22.41;24.71
41513;BME280;27244;59.940;30.280;2023-04-01T04:42:21;100343.00;;;22.41;24.88
41513;BME280;27244;59.940;30.280;2023-04-01T04:44:52;100335.78;;;22.40;24.79
41513;BME280;27244;59.940;30.280;2023-04-01T04:47:19;100328.03;;;22.32;24.81
41513;BME280;27244;59.940;30.280;2023-04-01T04:49:47;100330.38;;;22.33;24.68
41513;BME280;27244;59.940;30.280;2023-04-01T04:52:17;100347.81;;;22.41;24.82
41513;BME280;27244;59.940;30.280;2023-04-01T04:54:45;100340.97;;;22.42;24.82
41513;BME280;27244;59.940;30.280;2023-04-01T04:57:12;100349.03;;;22.40;24.75
41513;BME280;27244;59.940;30.280;2023-04-01T04:59:45;100353.44;;;22.41;24.68
41513;BME280;27244;59.940;30.280;2023-04-01T05:02:32;100340.38;;;22.34;24.65
41513;BME280;27244;59.940;30.280;2023-04-01T05:04:59;100342.19;;;22.41;24.72
41513;BME280;27244;59.940;30.280;2023-04-01T05:07:27;100351.84;;;22.40;24.79
41513;BME280;27244;59.940;30.280;2023-04-01T05:09:55;100345.53;;;22.36;24.72
41513;BME280;27244;59.940;30.280;2023-04-01T05:12:23;100351.06;;;22.39;24.72
41513;BME280;27244;59.940;30.280;2023-04-01T05:14:57;100359.84;;;22.41;24.72
41513;BME280;27244;59.940;30.280;2023-04-01T05:17:24;100359.84;;;22.41;24.61
41513;BME280;27244;59.940;30.280;2023-04-01T05:19:51;100353.44;;;22.41;24.66
41513;BME280;27244;59.940;30.280;2023-04-01T05:22:18;100358.38;;;22.37;24.66
41513;BME280;27244;59.940;30.280;2023-04-01T05:24:45;100350.28;;;22.39;24.71
41513;BME280;27244;59.940;30.280;2023-04-01T05:27:14;100365.47;;;22.41;24.69
41513;BME280;27244;59.940;30.280;2023-04-01T05:29:42;100366.69;;;22.40;24.69
41513;BME280;27244;59.940;30.280;2023-04-01T05:32:24;100364.69;;;22.41;24.59
41513;BME280;27244;59.940;30.280;2023-04-01T05:34:52;100360.63;;;22.42;25.35
41513;BME280;27244;59.940;30.280;2023-04-01T05:37:21;100369.66;;;22.49;24.74
41513;BME280;27244;59.940;30.280;2023-04-01T05:39:49;100359.53;;;22.52;24.50
41513;BME280;27244;59.940;30.280;2023-04-01T05:42:18;100353.91;;;22.52;24.36
41513;BME280;27244;59.940;30.280;2023-04-01T05:44:45;100367.78;;;22.59;24.11
41513;BME280;27244;59.940;30.280;2023-04-01T05:47:51;100374.97;;;22.60;23.91
41513;BME280;27244;59.940;30.280;2023-04-01T05:50:18;100368.91;;;22.62;23.87
41513;BME280;27244;59.940;30.280;2023-04-01T05:52:45;100369.69;;;22.62;23.76
41513;BME280;27244;59.940;30.280;2023-04-01T05:55:13;100374.88;;;22.64;23.79
41513;BME280;27244;59.940;30.280;2023-04-01T05:57:41;100372.50;;;22.62;23.75
41513;BME280;27244;59.940;30.280;2023-04-01T06:00:09;100374.09;;;22.63;23.62
41513;BME280;27244;59.940;30.280;2023-04-01T06:02:40;100374.41;;;22.65;23.54
41513;BME280;27244;59.940;30.280;2023-04-01T06:05:18;100381.53;;;22.70;23.71
41513;BME280;27244;59.940;30.280;2023-04-01T06:07:46;100372.41;;;22.66;23.42
41513;BME280;27244;59.940;30.280;2023-04-01T06:10:16;100377.94;;;22.69;23.57
41513;BME280;27244;59.940;30.280;2023-04-01T06:12:51;100379.09;;;22.72;23.57
41513;BME280;27244;59.940;30.280;2023-04-01T06:15:25;100372.31;;;22.69;23.46
41513;BME280;27244;59.940;30.280;2023-04-01T06:18:16;100371.41;;;22.72;23.64
41513;BME280;27244;59.940;30.280;2023-04-01T06:20:53;100383.03;;;22.74;23.43
41513;BME280;27244;59.940;30.280;2023-04-01T06:23:44;100377.63;;;22.67;23.20
41513;BME280;27244;59.940;30.280;2023-04-01T06:26:21;100385.47;;;22.72;23.54
41513;BME280;27244;59.940;30.280;2023-04-01T06:32:21;100378.19;;;22.75;23.34
41513;BME280;27244;59.940;30.280;2023-04-01T06:35:02;100383.03;;;22.74;23.26
41513;BME280;27244;59.940;30.280;2023-04-01T06:43:37;100386.97;;;22.77;23.39
41513;BME280;27244;59.940;30.280;2023-04-01T06:46:24;100386.97;;;22.77;23.38
41513;BME280;27244;59.940;30.280;2023-04-01T06:49:41;100392.47;;;22.80;23.40
41513;BME280;27244;59.940;30.280;2023-04-01T06:52:37;100387.31;;;22.79;23.38
41513;BME280;27244;59.940;30.280;2023-04-01T06:55:32;100378.31;;;22.71;23.29
41513;BME280;27244;59.940;30.280;2023-04-01T06:58:39;100399.09;;;22.74;23.36
41513;BME280;27244;59.940;30.280;2023-04-01T07:01:13;100392.69;;;22.73;23.52
41513;BME280;27244;59.940;30.280;2023-04-01T07:03:43;100389.09;;;22.73;23.70
41513;BME280;27244;59.940;30.280;2023-04-01T07:06:25;100399.69;;;22.81;24.12
41513;BME280;27244;59.940;30.280;2023-04-01T07:08:59;100395.41;;;22.77;24.54
41513;BME280;27244;59.940;30.280;2023-04-01T07:11:45;100395.41;;;22.77;24.76
41513;BME280;27244;59.940;30.280;2023-04-01T07:14:34;100395.41;;;22.77;25.02
41513;BME280;27244;59.940;30.280;2023-04-01T07:17:05;100397.41;;;22.76;25.19
41513;BME280;27244;59.940;30.280;2023-04-01T07:19:34;100399.00;;;22.90;24.67
41513;BME280;27244;59.940;30.280;2023-04-01T07:22:21;100401.59;;;22.84;25.13
41513;BME280;27244;59.940;30.280;2023-04-01T07:25:07;100392.25;;;22.75;25.30
41513;BME280;27244;59.940;30.280;2023-04-01T07:27:38;100403.94;;;22.73;25.61
41513;BME280;27244;59.940;30.280;2023-04-01T07:30:13;100414.44;;;22.85;25.62
41513;BME280;27244;59.940;30.280;2023-04-01T07:32:42;100417.34;;;22.82;25.97
41513;BME280;27244;59.940;30.280;2023-04-01T07:35:24;100413.53;;;22.88;25.80
41513;BME280;27244;59.940;30.280;2023-04-01T07:38:11;100413.97;;;22.87;25.83
41513;BME280;27244;59.940;30.280;2023-04-01T07:40:47;100428.84;;;22.87;26.02
41513;BME280;27244;59.940;30.280;2023-04-01T07:43:30;100427.59;;;22.88;25.96
41513;BME280;27244;59.940;30.280;2023-04-01T07:46:26;100419.16;;;22.88;26.06
41513;BME280;27244;59.940;30.280;2023-04-01T07:49:01;100437.16;;;22.91;26.24
41513;BME280;27244;59.940;30.280;2023-04-01T07:51:38;100434.72;;;22.93;26.23
41513;BME280;27244;59.940;30.280;2023-04-01T07:54:15;100429.84;;;22.93;26.42
41513;BME280;27244;59.940;30.280;2023-04-01T07:56:49;100425.47;;;22.92;26.38
41513;BME280;27244;59.940;30.280;2023-04-01T07:59:30;100438.66;;;22.95;26.38
41513;BME280;27244;59.940;30.280;2023-04-01T08:02:06;100437.84;;;22.95;26.48
41513;BME280;27244;59.940;30.280;2023-04-01T08:04:48;100446.97;;;22.99;26.53
41513;BME280;27244;59.940;30.280;2023-04-01T08:07:27;100444.72;;;22.94;26.62
41513;BME280;27244;59.940;30.280;2023-04-01T08:10:18;100450.59;;;22.99;26.63
41513;BME280;27244;59.940;30.280;2023-04-01T08:13:11;100449.00;;;22.98;26.77
41513;BME280;27244;59.940;30.280;2023-04-01T08:15:56;100457.78;;;23.00;26.75
41513;BME280;27244;59.940;30.280;2023-04-01T08:18:43;100456.66;;;22.98;26.83
41513;BME280;27244;59.940;30.280;2023-04-01T08:21:25;100462.97;;;23.02;27.00
41513;BME280;27244;59.940;30.280;2023-04-01T08:23:56;100452.28;;;22.97;27.12
41513;BME280;27244;59.940;30.280;2023-04-01T08:26:31;100458.91;;;23.03;27.03
41513;BME280;27244;59.940;30.280;2023-04-01T08:29:05;100460.50;;;23.04;27.20
41513;BME280;27244;59.940;30.280;2023-04-01T08:31:37;100458.47;;;23.04;27.20
41513;BME280;27244;59.940;30.280;2023-04-01T08:34:13;100460.84;;;23.06;27.26
41513;BME280;27244;59.940;30.280;2023-04-01T08:36:48;100454.41;;;23.05;27.27
41513;BME280;27244;59.940;30.280;2023-04-01T08:39:22;100450.47;;;23.03;27.52
41513;BME280;27244;59.940;30.280;2023-04-01T08:42:12;100460.72;;;23.10;27.38
41513;BME280;27244;59.940;30.280;2023-04-01T08:45:26;100467.03;;;23.14;27.43
41513;BME280;27244;59.940;30.280;2023-04-01T08:54:19;100463.09;;;23.11;27.53
41513;BME280;27244;59.940;30.280;2023-04-01T08:57:03;100465.22;;;23.07;27.71
41513;BME280;27244;59.940;30.280;2023-04-01T09:00:10;100476.72;;;23.13;27.72
41513;BME280;27244;59.940;30.280;2023-04-01T09:03:26;100477.94;;;23.12;27.76
41513;BME280;27244;59.940;30.280;2023-04-01T09:06:21;100467.25;;;23.07;27.76
41513;BME280;27244;59.940;30.280;2023-04-01T09:09:07;100487.53;;;23.14;27.75
41513;BME280;27244;59.940;30.280;2023-04-01T09:14:47;100488.34;;;23.27;27.54
41513;BME280;27244;59.940;30.280;2023-04-01T09:17:38;100495.88;;;23.18;27.85
41513;BME280;27244;59.940;30.280;2023-04-01T09:20:27;100490.13;;;23.21;28.00
41513;BME280;27244;59.940;30.280;2023-04-01T09:23:20;100484.72;;;23.14;27.94
41513;BME280;27244;59.940;30.280;2023-04-01T09:26:02;100493.84;;;23.18;28.07
41513;BME280;27244;59.940;30.280;2023-04-01T09:28:39;100494.28;;;23.17;28.07
41513;BME280;27244;59.940;30.280;2023-04-01T09:31:30;100493.38;;;23.20;28.10
41513;BME280;27244;59.940;30.280;2023-04-01T09:34:40;100497.34;;;23.22;27.99
41513;BME280;27244;59.940;30.280;2023-04-01T09:37:20;100498.59;;;23.21;28.16
41513;BME280;27244;59.940;30.280;2023-04-01T09:40:09;100502.97;;;23.22;28.16
41513;BME280;27244;59.940;30.280;2023-04-01T09:42:45;100495.06;;;23.17;28.30
41513;BME280;27244;59.940;30.280;2023-04-01T09:45:35;100495.66;;;23.25;28.16
41513;BME280;27244;59.940;30.280;2023-04-01T09:48:16;100503.63;;;23.26;28.17
41513;BME280;27244;59.940;30.280;2023-04-01T09:50:59;100496.88;;;23.24;28.17
41513;BME280;27244;59.940;30.280;2023-04-01T09:53:41;100500.16;;;23.22;28.23
41513;BME280;27244;59.940;30.280;2023-04-01T10:03:51;100500.72;;;23.30;28.26
41513;BME280;27244;59.940;30.280;2023-04-01T10:09:48;100510.75;;;23.31;28.26
41513;BME280;27244;59.940;30.280;2023-04-01T10:15:58;100508.16;;;23.24;28.51
41513;BME280;27244;59.940;30.280;2023-04-01T10:22:01;100525.50;;;23.35;28.41
41513;BME280;27244;59.940;30.280;2023-04-01T10:25:12;100516.72;;;23.33;28.38
41513;BME280;27244;59.940;30.280;2023-04-01T10:31:17;100519.97;;;23.31;28.36
41513;BME280;27244;59.940;30.280;2023-04-01T10:34:19;100525.19;;;23.33;28.73
41513;BME280;27244;59.940;30.280;2023-04-01T10:36:53;100526.94;;;23.27;28.52
41513;BME280;27244;59.940;30.280;2023-04-01T10:40:16;100526.50;;;23.28;28.30
41513;BME280;27244;59.940;30.280;2023-04-01T10:43:58;100535.53;;;23.36;28.31
41513;BME280;27244;59.940;30.280;2023-04-01T10:56:43;100540.00;;;23.33;28.39
41513;BME280;27244;59.940;30.280;2023-04-01T10:59:36;100546.22;;;23.41;28.19
41513;BME280;27244;59.940;30.280;2023-04-01T11:06:49;100544.53;;;23.31;28.52
41513;BME280;27244;59.940;30.280;2023-04-01T11:10:05;100547.22;;;23.34;28.39
41513;BME280;27244;59.940;30.280;2023-04-01T11:13:28;100543.28;;;23.32;28.33
41513;BME280;27244;59.940;30.280;2023-04-01T11:16:32;100562.88;;;23.35;28.32
41513;BME280;27244;59.940;30.280;2023-04-01T11:19:32;100566.13;;;23.34;28.40
41513;BME280;27244;59.940;30.280;2023-04-01T11:22:29;100564.59;;;23.33;28.52
41513;BME280;27244;59.940;30.280;2023-04-01T11:25:21;100567.84;;;23.31;28.39
41513;BME280;27244;59.940;30.280;2023-04-01T11:31:25;100565.72;;;23.35;28.58
41513;BME280;27244;59.940;30.280;2023-04-01T11:34:01;100560.72;;;23.27;28.37
41513;BME280;27244;59.940;30.280;2023-04-01T11:36:37;100562.31;;;23.28;28.62
41513;BME280;27244;59.940;30.280;2023-04-01T11:39:20;100570.97;;;23.33;28.67
41513;BME280;27244;59.940;30.280;2023-04-01T11:42:17;100577.06;;;23.32;28.73
41513;BME280;27244;59.940;30.280;2023-04-01T11:45:17;100569.06;;;23.30;28.77
41513;BME280;27244;59.940;30.280;2023-04-01T11:48:07;100576.59;;;23.33;28.80
41513;BME280;27244;59.940;30.280;2023-04-01T11:50:58;100575.75;;;23.36;29.04
41513;BME280;27244;59.940;30.280;2023-04-01T11:53:36;100582.22;;;23.33;28.85
41513;BME280;27244;59.940;30.280;2023-04-01T11:56:21;100586.22;;;23.36;28.88
41513;BME280;27244;59.940;30.280;2023-04-01T12:01:56;100593.75;;;23.39;28.77
41513;BME280;27244;59.940;30.280;2023-04-01T12:04:53;100581.09;;;23.31;28.75
41513;BME280;27244;59.940;30.280;2023-04-01T12:07:31;100598.69;;;23.35;29.14
41513;BME280;27244;59.940;30.280;2023-04-01T12:10:10;100593.84;;;23.35;29.11
41513;BME280;27244;59.940;30.280;2023-04-01T12:12:45;100595.09;;;23.34;29.16
41513;BME280;27244;59.940;30.280;2023-04-01T12:15:21;100593.06;;;23.35;29.62
41513;BME280;27244;59.940;30.280;2023-04-01T12:17:56;100592.72;;;23.33;29.43
41513;BME280;27244;59.940;30.280;2023-04-01T12:20:38;100600.72;;;23.34;29.30
41513;BME280;27244;59.940;30.280;2023-04-01T12:23:27;100601.50;;;23.35;29.47
41513;BME280;27244;59.940;30.280;2023-04-01T12:26:09;100597.19;;;23.30;29.54
41513;BME280;27244;59.940;30.280;2023-04-01T12:28:59;100605.53;;;23.34;29.48
41513;BME280;27244;59.940;30.280;2023-04-01T12:31:38;100612.06;;;23.31;29.36
41513;BME280;27244;59.940;30.280;2023-04-01T12:37:21;100611.19;;;23.34;29.29
41513;BME280;27244;59.940;30.280;2023-04-01T12:40:04;100619.97;;;23.36;29.43
41513;BME280;27244;59.940;30.280;2023-04-01T12:42:49;100610.75;;;23.35;29.42
41513;BME280;27244;59.940;30.280;2023-04-01T12:45:28;100617.97;;;23.36;29.48
41513;BME280;27244;59.940;30.280;2023-04-01T12:48:18;100618.66;;;23.40;29.38
41513;BME280;27244;59.940;30.280;2023-04-01T12:51:00;100627.53;;;23.39;29.50
41513;BME280;27244;59.940;30.280;2023-04-01T12:53:55;100628.31;;;23.39;29.39
41513;BME280;27244;59.940;30.280;2023-04-01T12:56:33;100633.16;;;23.39;29.67
41513;BME280;27244;59.940;30.280;2023-04-01T13:02:12;100630.34;;;23.39;29.72
41513;BME280;27244;59.940;30.280;2023-04-01T13:05:09;100638.38;;;23.40;30.00
41513;BME280;27244;59.940;30.280;2023-04-01T13:07:53;100638.19;;;23.47;29.99
41513;BME280;27244;59.940;30.280;2023-04-01T13:10:36;100637.19;;;23.54;30.00
41513;BME280;27244;59.940;30.280;2023-04-01T13:13:31;100635.41;;;23.60;29.97
41513;BME280;27244;59.940;30.280;2023-04-01T13:16:06;100632.16;;;23.62;29.97
41513;BME280;27244;59.940;30.280;2023-04-01T13:18:39;100637.78;;;23.62;30.48
41513;BME280;27244;59.940;30.280;2023-04-01T13:21:16;100649.47;;;23.60;32.53
41513;BME280;27244;59.940;30.280;2023-04-01T13:23:54;100660.75;;;23.60;32.99
41513;BME280;27244;59.940;30.280;2023-04-01T13:26:28;100660.75;;;23.60;34.80
41513;BME280;27244;59.940;30.280;2023-04-01T13:29:11;100657.50;;;23.62;34.96
41513;BME280;27244;59.940;30.280;2023-04-01T13:31:59;100665.94;;;23.62;36.39
41513;BME280;27244;59.940;30.280;2023-04-01T13:34:47;100669.44;;;23.66;36.78
41513;BME280;27244;59.940;30.280;2023-04-01T13:37:26;100669.88;;;23.64;37.48
41513;BME280;27244;59.940;30.280;2023-04-01T13:40:12;100674.19;;;23.69;37.07
41513;BME280;27244;59.940;30.280;2023-04-01T13:42:48;100671.38;;;23.69;37.15
41513;BME280;27244;59.940;30.280;2023-04-01T13:45:20;100671.38;;;23.69;37.48
41513;BME280;27244;59.940;30.280;2023-04-01T13:48:16;100677.22;;;23.74;36.55
41513;BME280;27244;59.940;30.280;2023-04-01T13:51:12;100675.31;;;23.71;36.97
41513;BME280;27244;59.940;30.280;2023-04-01T13:54:07;100684.44;;;23.75;36.24
41513;BME280;27244;59.940;30.280;2023-04-01T13:56:50;100689.72;;;23.73;36.41
41513;BME280;27244;59.940;30.280;2023-04-01T13:59:54;100681.84;;;23.68;35.71
41513;BME280;27244;59.940;30.280;2023-04-01T14:02:37;100697.50;;;23.69;35.54
41513;BME280;27244;59.940;30.280;2023-04-01T14:05:36;100692.22;;;23.71;35.02
41513;BME280;27244;59.940;30.280;2023-04-01T14:08:20;100688.47;;;23.62;35.05
41513;BME280;27244;59.940;30.280;2023-04-01T14:11:03;100689.25;;;23.62;34.41
41513;BME280;27244;59.940;30.280;2023-04-01T14:13:51;100684.28;;;23.66;33.98
41513;BME280;27244;59.940;30.280;2023-04-01T14:19:56;100695.47;;;23.70;33.52
41513;BME280;27244;59.940;30.280;2023-04-01T14:22:33;100688.91;;;23.60;33.23
41513;BME280;27244;59.940;30.280;2023-04-01T14:25:25;100695.91;;;23.68;33.10
41513;BME280;27244;59.940;30.280;2023-04-01T14:28:03;100704.09;;;23.63;32.80
41513;BME280;27244;59.940;30.280;2023-04-01T14:30:56;100699.03;;;23.58;32.66
41513;BME280;27244;59.940;30.280;2023-04-01T14:33:34;100710.19;;;23.61;32.43
41513;BME280;27244;59.940;30.280;2023-04-01T14:39:26;100711.78;;;23.62;32.33
41513;BME280;27244;59.940;30.280;2023-04-01T14:42:11;100711.44;;;23.60;31.96
41513;BME280;27244;59.940;30.280;2023-04-01T14:44:57;100700.53;;;23.62;31.99
41513;BME280;27244;59.940;30.280;2023-04-01T14:47:48;100717.41;;;23.62;32.01
41513;BME280;27244;59.940;30.280;2023-04-01T14:50:23;100713.66;;;23.52;32.16